createdAt,value
2023-02-19T00:01:44.783Z,77.49
2023-02-19T00:04:17.481Z,77.35
2023-02-19T00:06:47.544Z,77.33
2023-02-19T00:09:20.645Z,77.15
2023-02-19T00:11:51.886Z,77.02
2023-02-19T00:14:23.438Z,77.08
2023-02-19T00:16:54.175Z,76.98
2023-02-19T00:19:24.833Z,77.05
2023-02-19T00:21:56.162Z,76.90
2023-02-19T00:24:26.840Z,77.07
2023-02-19T00:26:57.536Z,76.81
2023-02-19T00:29:28.786Z,76.98
2023-02-19T00:31:59.612Z,76.65
2023-02-19T00:34:30.598Z,76.98
2023-02-19T00:37:01.808Z,76.93
2023-02-19T00:39:32.831Z,76.67
2023-02-19T00:42:03.500Z,76.64
2023-02-19T00:44:34.224Z,76.52
2023-02-19T00:47:04.906Z,76.60
2023-02-19T00:49:35.835Z,76.68
2023-02-19T00:52:06.929Z,76.65
2023-02-19T00:54:37.516Z,76.75
2023-02-19T00:57:08.222Z,76.67
2023-02-19T00:59:38.978Z,76.84
2023-02-19T01:02:09.615Z,76.63
2023-02-19T01:04:40.356Z,76.63
2023-02-19T01:07:11.540Z,76.57
2023-02-19T01:09:42.453Z,76.54
2023-02-19T01:12:13.928Z,76.52
2023-02-19T01:14:44.654Z,76.70
2023-02-19T01:17:15.257Z,76.57
2023-02-19T01:19:45.926Z,76.55
2023-02-19T01:22:16.593Z,76.49
2023-02-19T01:24:47.321Z,76.33
2023-02-19T01:27:17.884Z,76.36
2023-02-19T01:29:48.734Z,76.48
2023-02-19T01:32:19.565Z,76.42
2023-02-19T01:34:50.236Z,76.71
2023-02-19T01:37:21.113Z,76.45
2023-02-19T01:39:51.826Z,76.40
2023-02-19T01:42:22.541Z,76.54
2023-02-19T01:45:23.216Z,76.57
2023-02-19T01:48:00.516Z,76.75
2023-02-19T01:50:34.325Z,76.48
2023-02-19T01:53:07.951Z,76.75
2023-02-19T01:55:39.781Z,76.84
2023-02-19T01:58:11.732Z,76.80
2023-02-19T02:00:42.511Z,76.97
2023-02-19T02:03:13.946Z,77.39
2023-02-19T02:05:51.639Z,77.73
2023-02-19T02:08:40.350Z,77.98
2023-02-19T02:11:11.710Z,78.33
2023-02-19T02:13:43.389Z,78.64
2023-02-19T02:16:24.406Z,78.66
2023-02-19T02:19:06.155Z,79.01
2023-02-19T02:21:54.662Z,79.26
2023-02-19T02:24:47.355Z,79.25
2023-02-19T02:27:32.367Z,79.38
2023-02-19T02:30:26.953Z,79.55
2023-02-19T02:33:05.243Z,79.72
2023-02-19T02:35:42.624Z,79.71
2023-02-19T02:38:17.980Z,80.10
2023-02-19T02:40:49.715Z,80.15
2023-02-19T02:43:20.624Z,80.28
2023-02-19T02:45:51.431Z,80.39
2023-02-19T02:48:44.665Z,80.45
2023-02-19T02:51:22.108Z,80.86
2023-02-19T02:54:28.524Z,81.13
2023-02-19T02:57:00.927Z,81.15
2023-02-19T02:59:38.286Z,81.44
2023-02-19T03:02:18.757Z,81.38
2023-02-19T03:05:27.940Z,81.52
2023-02-19T03:08:04.369Z,81.44
2023-02-19T03:10:40.218Z,81.37
2023-02-19T03:13:32.122Z,81.27
2023-02-19T03:16:25.670Z,81.42
2023-02-19T03:19:17.852Z,81.18
2023-02-19T03:21:54.031Z,81.10
2023-02-19T03:24:45.790Z,80.78
2023-02-19T03:27:18.092Z,80.70
2023-02-19T03:29:53.027Z,80.58
2023-02-19T03:32:28.924Z,80.90
2023-02-19T03:35:05.844Z,80.79
2023-02-19T03:37:42.695Z,80.87
2023-02-19T03:40:15.016Z,80.92
2023-02-19T03:42:57.502Z,80.97
2023-02-19T03:45:37.887Z,81.20
2023-02-19T03:48:23.812Z,80.91
2023-02-19T03:51:05.325Z,80.76
2023-02-19T03:53:48.552Z,80.95
2023-02-19T03:56:27.592Z,80.84
2023-02-19T03:59:03.220Z,81.19
2023-02-19T04:01:40.508Z,81.10
2023-02-19T04:04:17.973Z,81.30
2023-02-19T04:06:55.527Z,81.37
2023-02-19T04:09:29.696Z,81.34
2023-02-19T04:12:06.291Z,81.49
2023-02-19T04:14:40.903Z,81.72
2023-02-19T04:17:18.809Z,81.57
2023-02-19T04:19:51.999Z,81.63
2023-02-19T04:22:23.764Z,81.47
2023-02-19T04:24:56.654Z,81.46
2023-02-19T04:27:27.686Z,81.33
2023-02-19T04:29:58.375Z,81.61
2023-02-19T04:32:29.165Z,81.70
2023-02-19T04:34:59.766Z,81.58
2023-02-19T04:37:30.544Z,81.52
2023-02-19T04:40:01.107Z,81.64
2023-02-19T04:42:31.945Z,81.72
2023-02-19T04:45:02.697Z,81.55
2023-02-19T04:47:34.154Z,81.67
2023-02-19T04:50:05.187Z,81.77
2023-02-19T04:52:35.889Z,81.92
2023-02-19T04:55:08.008Z,81.69
2023-02-19T04:57:38.863Z,81.86
2023-02-19T05:00:12.240Z,82.16
2023-02-19T05:02:42.937Z,82.01
2023-02-19T05:05:13.663Z,82.25
2023-02-19T05:07:44.401Z,82.16
2023-02-19T05:10:15.107Z,81.97
2023-02-19T05:12:45.813Z,82.05
2023-02-19T05:15:17.500Z,82.33
2023-02-19T05:17:48.187Z,82.39
2023-02-19T05:20:19.216Z,82.67
2023-02-19T05:22:49.884Z,82.68
2023-02-19T05:25:20.494Z,82.95
2023-02-19T05:28:11.162Z,82.65
2023-02-19T05:30:41.865Z,82.89
2023-02-19T05:33:13.851Z,82.82
2023-02-19T05:35:47.150Z,83.13
2023-02-19T05:38:19.141Z,82.97
2023-02-19T05:40:50.047Z,82.84
2023-02-19T05:43:20.733Z,82.92
2023-02-19T05:45:51.392Z,82.88
2023-02-19T05:48:22.028Z,82.94
2023-02-19T05:50:52.761Z,82.60
2023-02-19T05:53:23.418Z,82.97
2023-02-19T05:55:54.117Z,82.73
2023-02-19T05:58:25.093Z,82.73
2023-02-19T06:00:56.218Z,82.50
2023-02-19T06:03:27.049Z,82.60
2023-02-19T06:05:57.713Z,82.49
2023-02-19T06:08:28.462Z,82.53
2023-02-19T06:10:59.334Z,82.40
2023-02-19T06:13:30.129Z,82.34
2023-02-19T06:16:01.008Z,82.36
2023-02-19T06:18:31.789Z,82.45
2023-02-19T06:21:05.340Z,82.58
2023-02-19T06:23:36.132Z,82.60
2023-02-19T06:26:17.695Z,82.58
2023-02-19T06:28:50.247Z,82.62
2023-02-19T06:31:22.094Z,82.63
2023-02-19T06:33:53.130Z,82.70
2023-02-19T06:36:24.286Z,82.93
2023-02-19T06:38:54.940Z,82.92
2023-02-19T06:41:25.575Z,82.95
2023-02-19T06:43:57.999Z,82.92
2023-02-19T06:46:28.864Z,82.95
2023-02-19T06:48:59.715Z,83.18
2023-02-19T06:51:32.678Z,82.97
2023-02-19T06:54:03.604Z,82.92
2023-02-19T06:56:36.307Z,83.01
2023-02-19T06:59:08.631Z,83.06
2023-02-19T07:01:40.420Z,83.06
2023-02-19T07:04:16.312Z,82.73
2023-02-19T07:06:51.738Z,82.67
2023-02-19T07:09:23.591Z,82.87
2023-02-19T07:11:54.338Z,83.06
2023-02-19T07:14:25.193Z,82.82
2023-02-19T07:16:55.956Z,82.78
2023-02-19T07:19:26.669Z,82.64
2023-02-19T07:21:57.353Z,82.64
2023-02-19T07:24:28.120Z,82.63
2023-02-19T07:26:58.800Z,82.62
2023-02-19T07:29:29.473Z,82.50
2023-02-19T07:32:00.186Z,80.98
2023-02-19T07:34:31.059Z,80.25
2023-02-19T07:37:01.800Z,79.87
2023-02-19T07:39:32.809Z,80.31
2023-02-19T07:42:03.443Z,80.17
2023-02-19T07:44:36.115Z,79.89
2023-02-19T07:47:06.819Z,80.02
2023-02-19T07:49:38.061Z,80.38
2023-02-19T07:52:09.034Z,80.17
2023-02-19T07:54:39.875Z,80.29
2023-02-19T07:57:10.616Z,80.04
2023-02-19T07:59:41.446Z,79.87
2023-02-19T08:02:35.795Z,79.83
2023-02-19T08:05:07.908Z,79.92
2023-02-19T08:07:38.924Z,79.92
2023-02-19T08:10:28.417Z,79.65
2023-02-19T08:13:18.206Z,79.72
2023-02-19T08:15:50.338Z,79.63
2023-02-19T08:18:22.967Z,79.30
2023-02-19T08:20:54.307Z,79.00
2023-02-19T08:23:25.256Z,78.85
2023-02-19T08:25:58.817Z,78.63
2023-02-19T08:28:30.584Z,78.12
2023-02-19T08:31:04.540Z,77.94
2023-02-19T08:33:35.857Z,78.27
2023-02-19T08:36:10.427Z,78.01
2023-02-19T08:38:41.616Z,78.19
2023-02-19T08:41:14.626Z,78.09
2023-02-19T08:43:45.996Z,77.68
2023-02-19T08:46:17.334Z,77.65
2023-02-19T08:48:48.281Z,77.82
2023-02-19T08:51:19.177Z,77.36
2023-02-19T08:53:49.917Z,77.14
2023-02-19T08:56:20.664Z,76.83
2023-02-19T08:58:51.273Z,76.93
2023-02-19T09:01:22.110Z,76.81
2023-02-19T09:03:54.015Z,76.39
2023-02-19T09:06:25.131Z,76.43
2023-02-19T09:08:55.927Z,76.51
2023-02-19T09:11:26.547Z,76.98
2023-02-19T09:13:58.501Z,76.42
2023-02-19T09:16:29.309Z,76.22
2023-02-19T09:19:00.209Z,76.18
2023-02-19T09:21:30.897Z,76.56
2023-02-19T09:24:01.586Z,76.54
2023-02-19T09:26:32.263Z,76.89
2023-02-19T09:29:02.918Z,76.01
2023-02-19T09:31:35.267Z,74.70
2023-02-19T09:34:07.099Z,74.62
2023-02-19T09:36:37.955Z,74.58
2023-02-19T09:39:12.444Z,74.58
2023-02-19T09:41:49.699Z,74.41
2023-02-19T09:44:26.744Z,74.44
2023-02-19T09:46:59.710Z,75.06
2023-02-19T09:49:30.294Z,74.85
2023-02-19T09:52:05.115Z,75.12
2023-02-19T09:54:37.770Z,76.13
2023-02-19T09:57:15.164Z,76.13
2023-02-19T09:59:49.989Z,76.23
2023-02-19T10:02:23.225Z,76.20
2023-02-19T10:04:54.861Z,75.84
2023-02-19T10:07:27.981Z,75.85
2023-02-19T10:10:03.083Z,75.65
2023-02-19T10:12:35.190Z,75.58
2023-02-19T10:15:13.325Z,75.09
2023-02-19T10:17:44.216Z,74.99
2023-02-19T10:20:18.852Z,74.92
2023-02-19T10:22:49.979Z,74.44
2023-02-19T10:25:20.739Z,73.87
2023-02-19T10:27:51.538Z,74.29
2023-02-19T10:30:25.150Z,74.08
2023-02-19T10:33:05.843Z,73.70
2023-02-19T10:35:40.099Z,72.86
2023-02-19T10:38:17.877Z,72.72
2023-02-19T10:40:49.554Z,73.04
2023-02-19T10:43:33.020Z,73.21
2023-02-19T10:46:07.292Z,72.91
2023-02-19T10:48:42.016Z,72.14
2023-02-19T10:51:21.865Z,71.98
2023-02-19T10:54:04.320Z,71.98
2023-02-19T10:56:35.088Z,71.04
2023-02-19T10:59:28.441Z,70.95
2023-02-19T11:02:03.916Z,70.38
2023-02-19T11:04:38.245Z,71.04
2023-02-19T11:07:18.838Z,71.18
2023-02-19T11:09:53.827Z,71.47
2023-02-19T11:12:30.570Z,71.75
2023-02-19T11:15:05.616Z,70.53
2023-02-19T11:17:36.967Z,70.70
2023-02-19T11:20:15.958Z,70.31
2023-02-19T11:22:49.293Z,70.96
2023-02-19T11:25:25.911Z,70.18
2023-02-19T11:28:07.226Z,69.79
2023-02-19T11:30:42.573Z,69.39
2023-02-19T11:33:28.213Z,69.66
2023-02-19T11:36:26.281Z,69.28
2023-02-19T11:38:58.787Z,69.08
2023-02-19T11:41:46.518Z,68.80
2023-02-19T11:44:31.410Z,69.08
2023-02-19T11:47:07.063Z,68.85
2023-02-19T11:49:50.208Z,67.87
2023-02-19T11:52:30.857Z,67.71
2023-02-19T11:55:14.727Z,67.70
2023-02-19T11:57:48.565Z,66.96
2023-02-19T12:00:26.163Z,66.77
2023-02-19T12:03:19.042Z,65.79
2023-02-19T12:06:05.804Z,66.64
2023-02-19T12:08:59.690Z,66.44
2023-02-19T12:11:45.012Z,66.68
2023-02-19T12:14:57.886Z,65.88
2023-02-19T12:17:44.484Z,65.12
2023-02-19T12:20:25.767Z,64.82
2023-02-19T12:23:14.541Z,64.41
2023-02-19T12:25:55.551Z,64.26
2023-02-19T12:28:47.460Z,64.44
2023-02-19T12:31:47.510Z,64.01
2023-02-19T12:34:41.048Z,64.30
2023-02-19T12:37:31.375Z,64.10
2023-02-19T12:40:16.568Z,63.79
2023-02-19T12:43:00.779Z,63.69
2023-02-19T12:45:37.574Z,63.49
2023-02-19T12:48:15.841Z,63.53
2023-02-19T12:50:50.483Z,63.07
2023-02-19T12:53:39.603Z,63.40
2023-02-19T12:56:16.002Z,63.80
2023-02-19T12:58:51.054Z,62.96
2023-02-19T13:01:27.251Z,62.36
2023-02-19T13:04:19.019Z,61.86
2023-02-19T13:06:54.166Z,61.86
2023-02-19T13:09:30.928Z,61.31
2023-02-19T13:12:08.896Z,61.56
2023-02-19T13:14:43.983Z,61.00
2023-02-19T13:17:22.515Z,61.29
2023-02-19T13:19:57.932Z,61.20
2023-02-19T13:23:18.672Z,60.19
2023-02-19T13:26:08.082Z,59.17
2023-02-19T13:29:05.970Z,59.68
2023-02-19T13:31:56.424Z,59.99
2023-02-19T13:34:42.330Z,60.58
2023-02-19T13:37:20.220Z,60.88
2023-02-19T13:39:52.505Z,59.76
2023-02-19T13:42:33.000Z,59.26
2023-02-19T13:45:08.516Z,58.89
2023-02-19T13:48:03.558Z,58.94
2023-02-19T13:50:36.009Z,58.92
2023-02-19T13:53:44.725Z,58.91
2023-02-19T13:56:42.191Z,59.87
2023-02-19T13:59:45.046Z,58.89
2023-02-19T14:02:57.877Z,59.34
2023-02-19T14:06:00.548Z,59.73
2023-02-19T14:09:03.585Z,60.15
2023-02-19T14:12:07.551Z,59.75
2023-02-19T14:14:40.176Z,60.04
2023-02-19T14:17:43.526Z,59.91
2023-02-19T14:20:45.037Z,59.79
2023-02-19T14:23:24.347Z,59.78
2023-02-19T14:26:03.228Z,60.01
2023-02-19T14:28:47.131Z,59.92
2023-02-19T14:31:33.055Z,59.51
2023-02-19T14:34:15.111Z,59.01
2023-02-19T14:36:51.575Z,59.27
2023-02-19T14:39:26.688Z,59.44
2023-02-19T14:42:07.050Z,59.68
2023-02-19T14:44:48.855Z,59.67
2023-02-19T14:47:23.153Z,60.22
2023-02-19T14:49:56.474Z,60.72
2023-02-19T14:52:32.199Z,60.78
2023-02-19T14:55:08.575Z,60.18
2023-02-19T14:57:45.479Z,60.54
2023-02-19T15:00:28.269Z,60.07
2023-02-19T15:03:00.125Z,59.88
2023-02-19T15:05:34.500Z,59.20
2023-02-19T15:08:24.129Z,58.80
2023-02-19T15:10:55.861Z,58.53
2023-02-19T15:14:01.858Z,58.67
2023-02-19T15:16:39.316Z,58.14
2023-02-19T15:19:33.021Z,58.40
2023-02-19T15:22:19.655Z,58.78
2023-02-19T15:25:04.022Z,59.14
2023-02-19T15:27:50.695Z,59.42
2023-02-19T15:33:36.694Z,59.47
2023-02-19T15:36:37.448Z,59.17
2023-02-19T15:39:44.874Z,59.12
2023-02-19T15:42:38.191Z,58.98
2023-02-19T15:45:34.380Z,58.77
2023-02-19T15:48:17.452Z,58.37
2023-02-19T15:50:56.566Z,58.19
2023-02-19T15:53:31.263Z,58.40
2023-02-19T15:56:08.358Z,58.80
2023-02-19T15:58:43.841Z,59.06
2023-02-19T16:01:21.822Z,59.32
2023-02-19T16:03:54.115Z,60.03
2023-02-19T16:06:26.497Z,60.59
2023-02-19T16:09:05.998Z,60.67
2023-02-19T16:11:40.564Z,61.10
2023-02-19T16:14:28.096Z,61.32
2023-02-19T16:17:02.050Z,61.47
2023-02-19T16:19:43.956Z,61.81
2023-02-19T16:22:18.428Z,61.57
2023-02-19T16:24:54.046Z,61.33
2023-02-19T16:27:36.321Z,61.22
2023-02-19T16:30:28.229Z,61.44
2023-02-19T16:33:23.506Z,61.43
2023-02-19T16:35:54.473Z,61.61
2023-02-19T16:38:25.548Z,61.73
2023-02-19T16:41:12.049Z,61.97
2023-02-19T16:43:44.279Z,62.12
2023-02-19T16:46:15.813Z,62.26
2023-02-19T16:48:47.366Z,62.42
2023-02-19T16:51:25.233Z,62.46
2023-02-19T16:53:56.257Z,62.66
2023-02-19T16:56:27.553Z,62.83
2023-02-19T16:58:58.768Z,62.84
2023-02-19T17:01:30.454Z,62.83
2023-02-19T17:04:04.519Z,63.00
2023-02-19T17:06:39.517Z,62.93
2023-02-19T17:09:09.874Z,63.15
2023-02-19T17:11:41.033Z,63.07
2023-02-19T17:14:12.201Z,63.42
2023-02-19T17:16:43.582Z,63.23
2023-02-19T17:19:16.770Z,63.34
2023-02-19T17:21:46.743Z,63.62
2023-02-19T17:24:18.024Z,63.59
2023-02-19T17:26:49.142Z,63.75
2023-02-19T17:29:22.791Z,63.79
2023-02-19T17:31:54.026Z,63.89
2023-02-19T17:34:24.991Z,64.10
2023-02-19T17:36:56.165Z,64.10
2023-02-19T17:39:28.023Z,64.34
2023-02-19T17:42:02.110Z,64.52
2023-02-19T17:44:33.322Z,64.65
2023-02-19T17:47:04.780Z,64.94
2023-02-19T17:49:36.336Z,64.84
2023-02-19T17:52:07.854Z,65.08
2023-02-19T17:54:38.574Z,65.10
2023-02-19T17:57:09.308Z,65.31
2023-02-19T17:59:40.150Z,65.45
2023-02-19T18:02:11.094Z,65.50
2023-02-19T18:04:42.678Z,65.35
2023-02-19T18:07:13.486Z,65.64
2023-02-19T18:09:44.356Z,65.55
2023-02-19T18:12:15.813Z,65.68
2023-02-19T18:14:48.749Z,65.87
2023-02-19T18:17:25.595Z,65.95
2023-02-19T18:19:56.483Z,66.10
2023-02-19T18:22:29.488Z,66.10
2023-02-19T18:25:00.941Z,65.83
2023-02-19T18:27:31.605Z,66.06
2023-02-19T18:30:02.480Z,65.74
2023-02-19T18:32:33.489Z,65.84
2023-02-19T18:35:05.182Z,65.81
2023-02-19T18:37:36.041Z,65.88
2023-02-19T18:40:08.920Z,65.99
2023-02-19T18:42:42.938Z,65.85
2023-02-19T18:45:15.107Z,66.16
2023-02-19T18:47:49.310Z,66.10
2023-02-19T18:50:22.108Z,66.38
2023-02-19T18:52:53.227Z,66.42
2023-02-19T18:55:23.917Z,66.65
2023-02-19T18:57:56.165Z,66.91
2023-02-19T19:00:31.496Z,67.32
2023-02-19T19:03:06.498Z,67.34
2023-02-19T19:05:39.758Z,67.28
2023-02-19T19:08:10.831Z,67.72
2023-02-19T19:10:43.392Z,67.61
2023-02-19T19:13:14.118Z,67.78
2023-02-19T19:15:53.167Z,67.85
2023-02-19T19:18:25.096Z,68.16
2023-02-19T19:21:03.538Z,68.08
2023-02-19T19:23:34.258Z,68.32
2023-02-19T19:26:07.324Z,68.46
2023-02-19T19:28:36.408Z,68.23
2023-02-19T19:31:07.698Z,68.20
2023-02-19T19:33:38.517Z,68.08
2023-02-19T19:36:11.562Z,68.26
2023-02-19T19:38:42.362Z,68.49
2023-02-19T19:41:16.886Z,68.10
2023-02-19T19:43:47.992Z,68.27
2023-02-19T19:46:20.639Z,67.92
2023-02-19T19:48:52.878Z,67.93
2023-02-19T19:51:23.793Z,68.09
2023-02-19T19:53:54.746Z,68.16
2023-02-19T19:56:25.550Z,67.99
2023-02-19T19:58:56.184Z,68.13
2023-02-19T20:01:26.968Z,68.13
2023-02-19T20:03:57.657Z,68.37
2023-02-19T20:06:31.806Z,68.04
2023-02-19T20:09:02.505Z,68.21
2023-02-19T20:11:33.182Z,68.62
2023-02-19T20:14:03.989Z,68.58
2023-02-19T20:16:34.660Z,68.74
2023-02-19T20:19:06.167Z,68.92
2023-02-19T20:21:37.358Z,68.70
2023-02-19T20:24:08.963Z,68.72
2023-02-19T20:26:39.601Z,69.08
2023-02-19T20:29:11.244Z,69.36
2023-02-19T20:31:48.881Z,69.47
2023-02-19T20:34:20.218Z,69.47
2023-02-19T20:36:51.244Z,69.34
2023-02-19T20:39:28.679Z,69.31
2023-02-19T20:42:00.944Z,69.48
2023-02-19T20:44:31.909Z,69.78
2023-02-19T20:47:03.001Z,69.41
2023-02-19T20:49:34.472Z,69.88
2023-02-19T20:52:08.355Z,69.94
2023-02-19T20:54:39.420Z,70.02
2023-02-19T20:57:10.162Z,69.87
2023-02-19T20:59:41.213Z,69.79
2023-02-19T21:02:18.664Z,69.98
2023-02-19T21:04:49.529Z,69.99
2023-02-19T21:07:20.591Z,70.23
2023-02-19T21:09:52.066Z,70.43
2023-02-19T21:12:23.427Z,70.65
2023-02-19T21:14:54.085Z,70.82
2023-02-19T21:17:24.828Z,70.33
2023-02-19T21:19:55.651Z,70.82
2023-02-19T21:22:26.363Z,70.97
2023-02-19T21:24:57.410Z,70.87
2023-02-19T21:27:28.283Z,71.19
2023-02-19T21:29:58.962Z,71.29
2023-02-19T21:32:29.645Z,71.03
2023-02-19T21:35:00.507Z,71.26
2023-02-19T21:37:31.294Z,71.43
2023-02-19T21:40:02.110Z,71.62
2023-02-19T21:42:32.922Z,71.75
2023-02-19T21:45:03.737Z,71.63
2023-02-19T21:47:34.669Z,71.44
2023-02-19T21:50:07.697Z,71.70
2023-02-19T21:52:38.499Z,71.49
2023-02-19T21:55:09.917Z,71.48
2023-02-19T21:57:41.012Z,71.61
2023-02-19T22:00:13.575Z,71.52
2023-02-19T22:02:44.360Z,71.55
2023-02-19T22:05:15.103Z,71.67
2023-02-19T22:07:45.860Z,71.55
2023-02-19T22:10:16.764Z,71.80
2023-02-19T22:12:47.714Z,71.90
2023-02-19T22:15:18.589Z,71.33
2023-02-19T22:17:49.282Z,71.65
2023-02-19T22:20:21.662Z,71.42
2023-02-19T22:22:52.273Z,71.17
2023-02-19T22:25:23.137Z,71.77
2023-02-19T22:27:53.821Z,71.59
2023-02-19T22:30:24.594Z,76.11
2023-02-19T22:32:55.513Z,72.88
2023-02-19T22:35:27.028Z,72.04
2023-02-19T22:37:57.697Z,71.91
2023-02-19T22:40:28.336Z,72.28
2023-02-19T22:42:59.011Z,72.02
2023-02-19T22:45:29.696Z,72.16
2023-02-19T22:48:00.457Z,72.40
2023-02-19T22:50:31.271Z,72.15
2023-02-19T22:53:01.987Z,72.51
2023-02-19T22:55:32.712Z,72.60
2023-02-19T22:58:03.499Z,72.99
2023-02-19T23:00:34.246Z,72.77
2023-02-19T23:03:04.931Z,73.01
2023-02-19T23:05:35.558Z,72.92
2023-02-19T23:08:06.589Z,72.90
2023-02-19T23:10:37.294Z,72.83
2023-02-19T23:13:07.922Z,72.85
2023-02-19T23:15:38.604Z,72.53
2023-02-19T23:18:09.334Z,72.57
2023-02-19T23:20:40.313Z,72.63
2023-02-19T23:23:10.938Z,72.31
2023-02-19T23:25:41.534Z,72.39
2023-02-19T23:28:12.270Z,72.86
2023-02-19T23:30:42.983Z,72.74
2023-02-19T23:33:13.982Z,72.61
2023-02-19T23:35:44.816Z,72.22
2023-02-19T23:38:15.652Z,72.38
2023-02-19T23:40:46.458Z,72.53
2023-02-19T23:43:17.711Z,72.62
2023-02-19T23:45:48.483Z,72.32
2023-02-19T23:48:19.261Z,72.69
2023-02-19T23:50:50.110Z,72.73
2023-02-19T23:53:21.276Z,72.94
2023-02-19T23:55:52.774Z,73.17
2023-02-19T23:58:23.446Z,73.36
